Details From TTPP - Trinidade Piarco
To SVMI - Caracas Simon Bolivar Intl
Flight Number -
Tags Decoded
Created
Modified
Stats Distance 363 nm / 672 km
Max Altitude 0 ft / 0 m
Waypoints 6
Social Downloads 3
Likes 0
Share VATSIM

Download

Looking for another format? Having issues loading an existing format? Contact us
Advertisement - Login to hide

Notes

Decoded

Route

POS MEGIR CBC KORLI MARES MIQ

ID Type Via Altitude Latitude Longitude Leg Dist Tot Dist Heading (true) Name
O POS VOR - 0 ft / 0 m 10.46639˚ -61.39236˚ - 0 nm - PIARCO VOR-DME
MEGIR FIX - 0 ft / 0 m 10.51808˚ -61.87533˚ 28 nm 28 nm 276° / 276° -
CBC VOR - 0 ft / 0 m 10.57697˚ -66.04839˚ 246 nm 275 nm 271° / 270° -
KORLI FIX - 0 ft / 0 m 10.79475˚ -66.77203˚ 44 nm 319 nm 287° / 287° -
MARES FIX - 0 ft / 0 m 10.79000˚ -67.21333˚ 26 nm 345 nm 269° / 269° -
O MIQ VOR - 0 ft / 0 m 10.60947˚ -66.98967˚ 17 nm 362 nm 129° / 129° MAIQUETIA VOR-DME

Altitude Profile

Advertisement - Login to hide

Weather


0- 5 10 15 20 25 30 35+ Temperature / ° C

Clouds and Precipitation
Forecast for 2018-05-21 12:00 UTC. Updated 2 hours ago

Ground ~20,000 ft ~40,000 ft Winds

TTPP

Details ICAO TTPP (POS)
Name Trinidad/Piarco Intl
Region Trinidad and Tobago
Timezone America/Port_of_Spain (UTC-4.0)
Stats Elevation 57 ft / 17 m (AMSL)
Location 10.595370° -61.337239°
Runways 1
Magnetic Variation 15.024° W

METAR

TTPP 211100Z 00000KT 9999 FEW018 25/24 Q1013 NOSIG

Decode

TAF

Not found

Departure Runways

ID Width Length Bearing (true) Bearing (mag) Surface Threshold Offset Overrun Length
10 151 ft / 46 m 10,486 ft / 3,196 m 89.83° 104.85° Asphalt 0 ft / 0 m 79 ft / 24 m
28 151 ft / 46 m 10,486 ft / 3,196 m 269.84° 284.86° Asphalt 0 ft / 0 m 184 ft / 56 m

SVMI

Details ICAO SVMI (CCS)
Name Caracas Simon Bolivar Intl
Region Venezuela
Timezone America/Caracas (UTC-4.0)
Stats Elevation 235 ft / 72 m (AMSL)
Location 10.603119° -66.990585°
Runways 2
Magnetic Variation 12.327° W

METAR

SVMI 211100Z 09001KT 9999 SCT016 26/23 Q1009

Decode

TAF

Not found

Destination Runways

ID Width Length Bearing (true) Bearing (mag) Surface Threshold Offset Overrun Length
09 145 ft / 44 m 9,825 ft / 2,995 m 75.92° 88.25° Asphalt 0 ft / 0 m 0 ft / 0 m
10 148 ft / 45 m 11,472 ft / 3,497 m 88.14° 100.47° Asphalt 0 ft / 0 m 200 ft / 61 m
27 145 ft / 44 m 9,825 ft / 2,995 m 255.92° 268.25° Asphalt 0 ft / 0 m 0 ft / 0 m
28 148 ft / 45 m 11,472 ft / 3,497 m 268.15° 280.48° Asphalt 0 ft / 0 m 200 ft / 61 m

Approach Navaids

Runway Type Ident Frequency Range Bearing (true) Bearing (mag) Slope Elevation
10 Localiser IMIQ 110.10 MHz 18 nm / 33 km 87.90° 100.23° - 235 ft / 72 m (AMSL)
10 Glidescope IMIQ 110.10 MHz 10 nm / 19 km 88.14° 100.47° 3.00° 235 ft / 72 m (AMSL)
10 DME IMIQ 110.10 MHz 18 nm / 33 km - - - 235 ft / 72 m (AMSL)

Popular Alternatives